Monday, June 25, 2018, 7:28 PM GMT
Back to Local

CYKZ, Toronto Buttonville

Location: , , Canada Lat: 43.867
Local Time: 7:28 PM GMT (19:28 GMT) Lon: -79.367
Time Zone: GMT Elev: 649 ft

Show me the last for .
Show Decoded

2018-06-25 19:00 METAR CYKZ 251900Z 36005G16KT 340V040 15SM FEW260 21/04 A3022 RMK CI1 SLP235
                 DENSITY ALT 1200FT =
2018-06-25 18:00 METAR CYKZ 251800Z 36008G15KT 330V050 15SM FEW260 21/06 A3022 RMK CI1 SLP234
                 DENSITY ALT 1200FT =
2018-06-25 17:00 METAR CYKZ 251700Z 34012KT 15SM FEW260 20/06 A3022 RMK CI1 SLP235 DENSITY ALT
                 1100FT =
2018-06-25 16:00 METAR CYKZ 251600Z 01007G15KT 330V030 15SM FEW260 19/07 A3022 RMK CI1 SLP235
                 DENSITY ALT 1000FT =
2018-06-25 15:00 METAR CYKZ 251500Z 36009KT 15SM FEW015 FEW260 19/09 A3021 RMK CF1CI1 CF TR
                 SLP232 DENSITY ALT 1000FT =
2018-06-25 14:00 METAR CYKZ 251400Z 01010KT 15SM FEW260 18/08 A3021 RMK CI1 SLP231 DENSITY ALT
                 800FT =
2018-06-25 13:00 METAR CYKZ 251300Z 36009KT 15SM FEW260 16/09 A3020 RMK CI1 CI TR CONTRAILS
                 SLP229 DENSITY ALT 700FT =
2018-06-25 12:00 METAR CYKZ 251200Z 35009KT 15SM FEW260 15/08 A3018 RMK CI1 CI TR SLP222 =
2018-06-25 11:00 METAR CYKZ 251100Z 35007KT 15SM FEW160 14/09 A3016 RMK AC1 AC TR SLP216 =
2018-06-25 10:00 METAR CYKZ 251000Z 35007KT 15SM FEW030 FEW075 FEW240 13/10 A3013 RMK SC1AC1CI1
                 SC TR AC TR CI TR SLP205 =
2018-06-25 09:00 METAR CYKZ 250900Z 35011KT 15SM SKC 13/11 A3009 RMK SLP192 =
2018-06-25 08:00 METAR CYKZ 250800Z 34008KT 15SM FEW066 14/12 A3007 RMK AC1 AC TR SLP186 =
2018-06-25 07:00 METAR CYKZ 250700Z 33005KT 15SM FEW066 FEW220 14/12 A3007 RMK AC1CI1 AC TR CI TR
                 SLP185 =
2018-06-25 06:00 METAR CYKZ 250600Z 34004KT 15SM FEW070 14/13 A3006 RMK AC2 SLP183 =
2018-06-25 05:00 METAR CYKZ 250500Z 34006KT 15SM BKN075 BKN095 15/13 A3007 RMK AC5AC1 SLP183
                 DENSITY ALT 700FT =
2018-06-25 04:00 METAR CYKZ 250400Z 34005KT 15SM FEW047 SCT070 BKN080 BKN220 15/13 A3005 RMK
                 SC2AC2AC2CI1 CI TR SLP178 DENSITY ALT 700FT =
2018-06-25 03:00 METAR CYKZ 250300Z 34008KT 15SM FEW070 FEW090 FEW110 SCT260 16/13 A3002 RMK
                 AC1AC1AC1CI1 AC TR SLP166 DENSITY ALT 800FT =
2018-06-25 02:00 METAR CYKZ 250200Z 33009KT 15SM FEW070 BKN085 BKN110 17/14 A3001 RMK AC2AC3AC2
                 SLP163 DENSITY ALT 900FT =
2018-06-25 01:00 METAR CYKZ 250100Z 34009KT 15SM FEW020 FEW050 SCT080 BKN090 BKN230 19/14 A2996
                 RMK CF1SC1AC3AC3CI1 CF TR SC TR SLP148 DENSITY ALT 1200FT =
2018-06-25 00:00 METAR CYKZ 250000Z 33010KT 15SM SCT060 BKN100 BKN230 21/15 A2995 RMK SC4ACC1CI1
                 CI TR DIST SH E SLP144 DENSITY ALT 1500FT =
2018-06-24 23:00 METAR CYKZ 242300Z 31006KT 15SM FEW015 BKN095 BKN150 BKN260 21/17 A2994 RMK
                 CU1AC6AC1CI1 CU TR CI TR SLP140 DENSITY ALT 1500FT =
2018-06-24 22:00 METAR CYKZ 242200Z 32007KT 15SM FEW018 BKN130 21/16 A2993 RMK CU1AC6 SLP138
                 DENSITY ALT 1500FT =
2018-06-24 21:00 METAR CYKZ 242100Z 36004KT 15SM SCT020 SCT040 BKN110 20/17 A2991 RMK CU3SC1AC3
                 SLP128 DENSITY ALT 1500FT =
2018-06-24 20:00 METAR CYKZ 242000Z 01006KT 15SM SCT015 BKN032 OVC100 19/17 A2990 RMK CU3SC3AC2
                 SLP127 DENSITY ALT 1400FT =
2018-06-24 19:54 METAR CYKZ 241954Z 36006KT 15SM SCT015 BKN040 OVC100 19/17 A2990 RMK CU3SC4AC1
                 SLP127 DENSITY ALT 1400FT =

Support USWX by starting your Amazon purchase here.